createdAt,value
2023-11-02T00:00:00.646Z,65.10
2023-11-02T00:02:30.973Z,64.89
2023-11-02T00:04:59.492Z,65.07
2023-11-02T00:07:32.283Z,65.10
2023-11-02T00:10:00.570Z,64.96
2023-11-02T00:12:30.782Z,64.97
2023-11-02T00:15:01.347Z,64.68
2023-11-02T00:18:02.666Z,64.90
2023-11-02T00:20:39.412Z,64.86
2023-11-02T00:23:08.784Z,64.67
2023-11-02T00:25:53.527Z,64.54
2023-11-02T00:28:21.848Z,64.40
2023-11-02T00:30:52.224Z,64.81
2023-11-02T00:33:23.401Z,64.63
2023-11-02T00:35:52.456Z,64.75
2023-11-02T00:38:27.549Z,64.46
2023-11-02T00:40:57.205Z,64.28
2023-11-02T00:43:26.151Z,64.37
2023-11-02T00:45:55.314Z,64.33
2023-11-02T00:48:29.788Z,64.56
2023-11-02T00:51:15.406Z,64.68
2023-11-02T00:53:46.923Z,64.64
2023-11-02T00:56:17.823Z,64.64
2023-11-02T00:58:49.144Z,64.93
2023-11-02T01:01:19.449Z,64.85
2023-11-02T01:03:51.704Z,64.99
2023-11-02T01:06:23.049Z,64.99
2023-11-02T01:08:57.092Z,65.16
2023-11-02T01:11:30.015Z,65.22
2023-11-02T01:13:58.553Z,65.04
2023-11-02T01:16:29.127Z,65.17
2023-11-02T01:19:00.292Z,65.08
2023-11-02T01:21:31.560Z,65.17
2023-11-02T01:24:08.853Z,65.22
2023-11-02T01:27:02.336Z,65.21
2023-11-02T01:29:32.108Z,65.22
2023-11-02T01:32:02.148Z,65.11
2023-11-02T01:34:31.699Z,65.32
2023-11-02T01:36:59.802Z,65.33
2023-11-02T01:40:09.319Z,65.36
2023-11-02T01:42:44.344Z,65.24
2023-11-02T01:45:17.574Z,65.46
2023-11-02T01:48:11.925Z,65.48
2023-11-02T01:50:48.707Z,65.53
2023-11-02T01:53:30.151Z,65.33
2023-11-02T01:56:09.425Z,65.53
2023-11-02T01:58:48.863Z,65.38
2023-11-02T02:01:24.778Z,65.41
2023-11-02T02:04:03.832Z,65.31
2023-11-02T02:06:42.690Z,65.18
2023-11-02T02:09:26.725Z,64.93
2023-11-02T02:12:06.780Z,64.92
2023-11-02T02:14:47.977Z,64.65
2023-11-02T02:17:21.894Z,64.52
2023-11-02T02:20:02.729Z,64.35
2023-11-02T02:22:39.266Z,64.30
2023-11-02T02:25:19.568Z,64.57
2023-11-02T02:28:20.699Z,64.54
2023-11-02T02:31:09.340Z,64.46
2023-11-02T02:33:57.710Z,64.87
2023-11-02T02:36:36.669Z,64.90
2023-11-02T02:39:07.227Z,64.71
2023-11-02T02:41:40.356Z,64.65
2023-11-02T02:44:11.305Z,64.62
2023-11-02T02:46:41.086Z,64.56
2023-11-02T02:49:09.433Z,64.89
2023-11-02T02:51:42.810Z,65.05
2023-11-02T02:54:14.464Z,64.85
2023-11-02T02:56:45.003Z,65.21
2023-11-02T02:59:18.637Z,65.11
2023-11-02T03:01:49.505Z,65.20
2023-11-02T03:04:20.416Z,65.32
2023-11-02T03:06:52.641Z,65.48
2023-11-02T03:09:23.715Z,65.40
2023-11-02T03:11:55.597Z,65.74
2023-11-02T03:14:25.081Z,65.35
2023-11-02T03:17:02.200Z,65.76
2023-11-02T03:19:51.279Z,65.64
2023-11-02T03:22:22.614Z,65.57
2023-11-02T03:25:07.736Z,65.27
2023-11-02T03:27:49.105Z,65.24
2023-11-02T03:30:23.146Z,65.10
2023-11-02T03:33:01.500Z,65.09
2023-11-02T03:35:36.420Z,65.01
2023-11-02T03:38:23.450Z,64.91
2023-11-02T03:41:06.911Z,64.81
2023-11-02T03:43:43.708Z,64.76
2023-11-02T03:46:21.114Z,64.66
2023-11-02T03:48:59.937Z,64.83
2023-11-02T03:51:39.669Z,64.84
2023-11-02T03:54:23.009Z,64.76
2023-11-02T03:57:04.765Z,64.56
2023-11-02T03:59:57.707Z,64.54
2023-11-02T04:02:31.363Z,64.41
2023-11-02T04:05:13.794Z,64.12
2023-11-02T04:07:56.020Z,64.24
2023-11-02T04:10:28.519Z,64.08
2023-11-02T04:13:06.607Z,64.39
2023-11-02T04:15:34.889Z,64.40
2023-11-02T04:18:03.796Z,64.33
2023-11-02T04:20:32.006Z,64.15
2023-11-02T04:23:00.507Z,64.14
2023-11-02T04:25:30.533Z,64.31
2023-11-02T04:28:01.527Z,63.84
2023-11-02T04:30:29.868Z,64.07
2023-11-02T04:32:58.169Z,64.21
2023-11-02T04:35:26.357Z,63.97
2023-11-02T04:38:05.663Z,63.63
2023-11-02T04:40:35.282Z,63.89
2023-11-02T04:43:03.846Z,63.95
2023-11-02T04:45:32.474Z,64.08
2023-11-02T04:48:00.663Z,64.13
2023-11-02T04:50:29.731Z,64.17
2023-11-02T04:52:57.901Z,64.17
2023-11-02T04:55:26.066Z,63.78
2023-11-02T04:57:55.608Z,63.41
2023-11-02T05:00:24.385Z,63.31
2023-11-02T05:02:52.608Z,63.45
2023-11-02T05:05:21.213Z,62.92
2023-11-02T05:07:49.315Z,63.20
2023-11-02T05:10:17.433Z,62.79
2023-11-02T05:12:46.624Z,62.62
2023-11-02T05:15:17.126Z,61.76
2023-11-02T05:17:45.316Z,61.58
2023-11-02T05:20:13.445Z,61.96
2023-11-02T05:22:41.791Z,62.01
2023-11-02T05:25:10.177Z,62.31
2023-11-02T05:27:38.315Z,62.16
2023-11-02T05:30:08.710Z,63.00
2023-11-02T05:32:39.873Z,62.81
2023-11-02T05:35:10.637Z,63.35
2023-11-02T05:37:39.009Z,63.28
2023-11-02T05:40:08.981Z,63.50
2023-11-02T05:42:37.339Z,63.32
2023-11-02T05:45:06.687Z,64.02
2023-11-02T05:47:34.833Z,63.79
2023-11-02T05:50:04.631Z,63.79
2023-11-02T05:52:33.011Z,63.65
2023-11-02T05:55:01.353Z,63.56
2023-11-02T05:57:29.634Z,63.53
2023-11-02T05:59:58.547Z,63.29
2023-11-02T06:02:26.993Z,63.56
2023-11-02T06:04:55.281Z,63.44
2023-11-02T06:07:25.105Z,62.77
2023-11-02T06:09:53.341Z,62.72
2023-11-02T06:12:23.844Z,62.82
2023-11-02T06:14:52.126Z,63.06
2023-11-02T06:17:19.542Z,62.86
2023-11-02T06:19:47.847Z,62.52
2023-11-02T06:22:16.131Z,62.41
2023-11-02T06:24:46.835Z,62.33
2023-11-02T06:27:15.234Z,62.77
2023-11-02T06:29:43.449Z,62.46
2023-11-02T06:32:11.573Z,62.72
2023-11-02T06:34:40.967Z,63.14
2023-11-02T06:37:10.116Z,62.90
2023-11-02T06:39:38.640Z,63.02
2023-11-02T06:42:09.423Z,63.02
2023-11-02T06:44:40.531Z,63.52
2023-11-02T06:47:09.020Z,63.34
2023-11-02T06:49:37.151Z,64.07
2023-11-02T06:52:06.304Z,63.89
2023-11-02T06:54:34.757Z,63.88
2023-11-02T06:57:03.895Z,64.03
2023-11-02T06:59:33.485Z,64.29
2023-11-02T07:02:01.614Z,64.16
2023-11-02T07:04:29.901Z,64.31
2023-11-02T07:06:58.105Z,64.13
2023-11-02T07:09:26.279Z,64.14
2023-11-02T07:11:54.475Z,64.38
2023-11-02T07:14:23.106Z,64.48
2023-11-02T07:16:52.606Z,64.42
2023-11-02T07:19:20.881Z,64.49
2023-11-02T07:21:49.141Z,64.33
2023-11-02T07:24:18.230Z,63.90
2023-11-02T07:26:46.482Z,64.37
2023-11-02T07:29:14.804Z,64.14
2023-11-02T07:31:43.735Z,64.15
2023-11-02T07:34:14.782Z,64.05
2023-11-02T07:36:43.053Z,64.11
2023-11-02T07:39:14.291Z,64.79
2023-11-02T07:41:43.125Z,64.43
2023-11-02T07:44:11.384Z,64.40
2023-11-02T07:46:39.703Z,64.01
2023-11-02T07:49:08.080Z,63.28
2023-11-02T07:51:37.927Z,63.22
2023-11-02T07:54:08.581Z,63.80
2023-11-02T07:56:37.638Z,62.95
2023-11-02T07:59:06.011Z,62.68
2023-11-02T08:01:34.334Z,63.15
2023-11-02T08:04:03.612Z,63.09
2023-11-02T08:06:33.281Z,63.66
2023-11-02T08:09:03.080Z,63.22
2023-11-02T08:11:31.345Z,64.11
2023-11-02T08:13:59.578Z,63.89
2023-11-02T08:16:27.839Z,63.82
2023-11-02T08:18:56.028Z,64.37
2023-11-02T08:21:24.313Z,64.21
2023-11-02T08:23:52.538Z,64.62
2023-11-02T08:26:24.424Z,63.92
2023-11-02T08:28:53.746Z,64.06
2023-11-02T08:31:25.530Z,64.73
2023-11-02T08:33:54.095Z,64.56
2023-11-02T08:36:22.928Z,64.18
2023-11-02T08:38:51.264Z,64.57
2023-11-02T08:41:22.750Z,64.55
2023-11-02T08:43:52.003Z,63.94
2023-11-02T08:46:21.755Z,63.53
2023-11-02T08:48:51.306Z,63.28
2023-11-02T08:51:20.973Z,63.62
2023-11-02T08:53:49.673Z,63.76
2023-11-02T08:56:18.085Z,63.68
2023-11-02T08:58:49.169Z,64.63
2023-11-02T09:01:21.936Z,63.96
2023-11-02T09:03:52.610Z,64.16
2023-11-02T09:06:21.819Z,64.71
2023-11-02T09:08:50.952Z,64.74
2023-11-02T09:11:20.650Z,65.58
2023-11-02T09:13:50.361Z,66.11
2023-11-02T09:16:18.655Z,66.36
2023-11-02T09:18:47.116Z,66.29
2023-11-02T09:21:15.578Z,66.22
2023-11-02T09:23:45.395Z,66.92
2023-11-02T09:26:14.172Z,65.92
2023-11-02T09:28:42.452Z,66.04
2023-11-02T09:31:14.252Z,67.08
2023-11-02T09:33:42.685Z,66.31
2023-11-02T09:36:11.541Z,66.23
2023-11-02T09:38:39.858Z,66.84
2023-11-02T09:41:08.401Z,66.67
2023-11-02T09:43:37.225Z,67.26
2023-11-02T09:46:06.204Z,66.21
2023-11-02T09:48:35.941Z,66.10
2023-11-02T09:51:04.416Z,63.07
2023-11-02T09:53:33.383Z,63.28
2023-11-02T09:56:02.332Z,64.21
2023-11-02T09:58:31.500Z,65.44
2023-11-02T10:01:01.665Z,66.32
2023-11-02T10:03:30.008Z,67.58
2023-11-02T10:05:59.754Z,67.55
2023-11-02T10:08:28.008Z,67.91
2023-11-02T10:11:12.372Z,68.08
2023-11-02T10:13:40.875Z,68.63
2023-11-02T10:16:10.022Z,68.64
2023-11-02T10:18:38.359Z,68.71
2023-11-02T10:21:10.057Z,69.23
2023-11-02T10:23:56.587Z,68.67
2023-11-02T10:26:27.064Z,69.14
2023-11-02T10:28:57.010Z,68.56
2023-11-02T10:31:28.817Z,69.01
2023-11-02T10:33:57.738Z,68.32
2023-11-02T10:36:27.694Z,68.33
2023-11-02T10:38:57.714Z,68.92
2023-11-02T10:41:27.773Z,68.37
2023-11-02T10:43:59.285Z,69.28
2023-11-02T10:46:29.166Z,68.63
2023-11-02T10:49:01.502Z,68.82
2023-11-02T10:51:32.190Z,69.01
2023-11-02T10:54:11.378Z,68.28
2023-11-02T10:56:43.445Z,69.14
2023-11-02T10:59:12.876Z,69.02
2023-11-02T11:01:41.137Z,69.54
2023-11-02T11:04:12.435Z,69.45
2023-11-02T11:06:44.144Z,69.60
2023-11-02T11:09:14.138Z,69.73
2023-11-02T11:11:43.209Z,69.62
2023-11-02T11:14:11.550Z,68.86
2023-11-02T11:16:43.015Z,69.08
2023-11-02T11:19:12.429Z,69.41
2023-11-02T11:21:44.669Z,69.17
2023-11-02T11:24:17.609Z,69.66
2023-11-02T11:26:48.953Z,69.44
2023-11-02T11:29:39.982Z,69.17
2023-11-02T11:32:10.387Z,69.73
2023-11-02T11:35:18.372Z,69.57
2023-11-02T11:37:51.142Z,69.80
2023-11-02T11:40:33.745Z,69.63
2023-11-02T11:43:09.923Z,69.14
2023-11-02T11:45:39.598Z,68.88
2023-11-02T11:48:09.769Z,69.22
2023-11-02T11:50:40.189Z,69.97
2023-11-02T11:53:20.031Z,70.22
2023-11-02T11:55:49.879Z,69.86
2023-11-02T11:58:20.338Z,70.14
2023-11-02T12:01:18.603Z,70.17
2023-11-02T12:03:48.574Z,70.08
2023-11-02T12:06:18.147Z,69.31
2023-11-02T12:08:50.265Z,69.15
2023-11-02T12:11:25.277Z,69.25
2023-11-02T12:13:56.516Z,69.93
2023-11-02T12:16:31.732Z,68.74
2023-11-02T12:19:00.511Z,68.54
2023-11-02T12:21:29.059Z,68.86
2023-11-02T12:23:58.916Z,68.43
2023-11-02T12:26:28.851Z,68.57
2023-11-02T12:28:58.884Z,68.77
2023-11-02T12:31:29.439Z,68.67
2023-11-02T12:33:57.753Z,68.53
2023-11-02T12:36:26.380Z,68.68
2023-11-02T12:38:55.408Z,68.88
2023-11-02T12:41:29.382Z,69.26
2023-11-02T12:44:08.417Z,69.28
2023-11-02T12:46:39.284Z,69.19
2023-11-02T12:49:20.662Z,69.66
2023-11-02T12:52:05.886Z,69.04
2023-11-02T12:54:34.742Z,68.91
2023-11-02T12:57:06.903Z,69.29
2023-11-02T12:59:38.901Z,68.71
2023-11-02T13:02:07.794Z,68.45
2023-11-02T13:04:54.242Z,68.48
2023-11-02T13:07:24.730Z,68.67
2023-11-02T13:10:03.463Z,68.21
2023-11-02T13:12:35.037Z,68.25
2023-11-02T13:15:06.801Z,68.04
2023-11-02T13:17:35.108Z,68.28
2023-11-02T13:20:04.910Z,68.30
2023-11-02T13:22:32.992Z,68.80
2023-11-02T13:25:01.540Z,68.12
2023-11-02T13:27:30.455Z,68.16
2023-11-02T13:30:00.718Z,68.04
2023-11-02T13:32:30.517Z,68.50
2023-11-02T13:34:58.960Z,68.11
2023-11-02T13:37:28.299Z,68.07
2023-11-02T13:39:56.576Z,68.88
2023-11-02T13:42:24.851Z,68.90
2023-11-02T13:44:53.490Z,68.92
2023-11-02T13:47:24.594Z,68.54
2023-11-02T13:49:53.107Z,68.92
2023-11-02T13:52:21.788Z,69.44
2023-11-02T13:54:50.079Z,69.23
2023-11-02T13:57:18.389Z,68.82
2023-11-02T13:59:46.500Z,68.69
2023-11-02T14:02:16.717Z,68.67
2023-11-02T14:04:47.330Z,68.79
2023-11-02T14:07:17.549Z,69.19
2023-11-02T14:09:45.906Z,68.75
2023-11-02T14:12:14.023Z,68.61
2023-11-02T14:14:42.128Z,69.28
2023-11-02T14:17:10.374Z,68.74
2023-11-02T14:19:38.634Z,68.65
2023-11-02T14:22:09.196Z,69.52
2023-11-02T14:24:37.330Z,68.80
2023-11-02T14:27:05.667Z,68.91
2023-11-02T14:29:34.134Z,69.48
2023-11-02T14:32:02.281Z,69.90
2023-11-02T14:34:30.596Z,69.44
2023-11-02T14:36:59.193Z,69.96
2023-11-02T14:39:28.996Z,69.73
2023-11-02T14:41:57.429Z,69.50
2023-11-02T14:44:25.684Z,68.96
2023-11-02T14:46:53.856Z,69.36
2023-11-02T14:49:22.106Z,68.61
2023-11-02T14:51:50.863Z,68.82
2023-11-02T14:54:19.636Z,68.94
2023-11-02T14:56:49.386Z,68.40
2023-11-02T14:59:18.319Z,68.24
2023-11-02T15:01:46.465Z,68.36
2023-11-02T15:04:16.636Z,68.61
2023-11-02T15:06:45.388Z,69.06
2023-11-02T15:09:16.435Z,68.39
2023-11-02T15:11:44.780Z,68.65
2023-11-02T15:14:15.507Z,69.28
2023-11-02T15:16:45.910Z,68.56
2023-11-02T15:19:14.294Z,68.46
2023-11-02T15:21:46.520Z,68.69
2023-11-02T15:24:14.931Z,68.13
2023-11-02T15:26:43.345Z,68.42
2023-11-02T15:29:12.629Z,68.74
2023-11-02T15:31:42.226Z,68.39
2023-11-02T15:34:10.433Z,68.96
2023-11-02T15:36:39.389Z,68.67
2023-11-02T15:39:11.419Z,69.07
2023-11-02T15:41:39.902Z,68.84
2023-11-02T15:44:08.655Z,69.35
2023-11-02T15:46:42.466Z,68.73
2023-11-02T15:49:11.168Z,68.86
2023-11-02T15:51:44.406Z,68.78
2023-11-02T15:54:13.410Z,68.38
2023-11-02T15:56:41.678Z,68.61
2023-11-02T15:59:10.279Z,68.00
2023-11-02T16:01:38.519Z,67.91
2023-11-02T16:04:09.334Z,68.01
2023-11-02T16:06:38.307Z,67.95
2023-11-02T16:09:06.688Z,67.83
2023-11-02T16:11:34.825Z,67.54
2023-11-02T16:14:04.680Z,67.87
2023-11-02T16:16:32.998Z,68.19
2023-11-02T16:19:01.227Z,68.26
2023-11-02T16:21:31.031Z,67.86
2023-11-02T16:23:59.332Z,67.98
2023-11-02T16:26:27.545Z,68.05
2023-11-02T16:28:57.443Z,67.71
2023-11-02T16:31:26.322Z,68.31
2023-11-02T16:33:55.103Z,68.25
2023-11-02T16:36:45.053Z,67.83
2023-11-02T16:39:13.877Z,67.87
2023-11-02T16:41:46.428Z,68.12
2023-11-02T16:44:15.886Z,68.48
2023-11-02T16:46:44.849Z,68.28
2023-11-02T16:49:13.582Z,68.24
2023-11-02T16:51:44.296Z,68.09
2023-11-02T16:54:12.805Z,68.29
2023-11-02T16:56:41.851Z,67.79
2023-11-02T16:59:11.686Z,67.73
2023-11-02T17:01:40.377Z,67.66
2023-11-02T17:04:09.735Z,67.82
2023-11-02T17:06:38.262Z,67.94
2023-11-02T17:09:10.216Z,68.22
2023-11-02T17:11:39.362Z,68.20
2023-11-02T17:14:08.144Z,67.97
2023-11-02T17:16:36.553Z,67.85
2023-11-02T17:19:05.478Z,68.00
2023-11-02T17:21:33.815Z,67.88
2023-11-02T17:24:02.096Z,67.52
2023-11-02T17:26:31.755Z,67.49
2023-11-02T17:29:00.876Z,67.32
2023-11-02T17:31:30.451Z,67.29
2023-11-02T17:33:58.802Z,67.63
2023-11-02T17:36:29.330Z,68.00
2023-11-02T17:39:00.621Z,68.08
2023-11-02T17:41:31.055Z,67.76
2023-11-02T17:44:00.723Z,68.03
2023-11-02T17:46:29.220Z,68.44
2023-11-02T17:48:57.491Z,68.14
2023-11-02T17:51:26.636Z,68.08
2023-11-02T17:53:55.195Z,68.19
2023-11-02T17:56:23.444Z,67.86
2023-11-02T17:58:51.544Z,68.30
2023-11-02T18:01:21.923Z,68.38
2023-11-02T18:03:50.068Z,67.97
2023-11-02T18:06:19.152Z,68.30
2023-11-02T18:08:47.486Z,67.99
2023-11-02T18:11:15.763Z,68.46
2023-11-02T18:13:44.030Z,68.16
2023-11-02T18:16:15.296Z,68.32
2023-11-02T18:18:44.911Z,68.63
2023-11-02T18:21:13.366Z,68.64
2023-11-02T18:23:41.610Z,68.30
2023-11-02T18:26:13.719Z,68.40
2023-11-02T18:28:41.977Z,68.86
2023-11-02T18:31:10.267Z,68.79
2023-11-02T18:33:39.342Z,68.73
2023-11-02T18:36:11.954Z,68.80
2023-11-02T18:38:40.369Z,68.78
2023-11-02T18:41:08.699Z,68.19
2023-11-02T18:43:38.486Z,68.06
2023-11-02T18:46:07.287Z,68.35
2023-11-02T18:48:35.500Z,68.04
2023-11-02T18:51:06.054Z,68.34
2023-11-02T18:53:35.779Z,68.22
2023-11-02T18:56:05.263Z,68.38
2023-11-02T18:58:33.493Z,68.56
2023-11-02T19:01:01.832Z,68.86
2023-11-02T19:03:30.303Z,68.94
2023-11-02T19:05:58.765Z,69.68
2023-11-02T19:08:27.583Z,69.72
2023-11-02T19:11:00.982Z,70.03
2023-11-02T19:13:31.682Z,69.90
2023-11-02T19:16:00.123Z,69.85
2023-11-02T19:18:28.480Z,69.34
2023-11-02T19:20:58.477Z,69.85
2023-11-02T19:23:28.131Z,69.32
2023-11-02T19:25:57.956Z,69.75
2023-11-02T19:28:26.256Z,69.43
2023-11-02T19:30:54.694Z,69.86
2023-11-02T19:33:23.039Z,69.54
2023-11-02T19:35:51.538Z,69.50
2023-11-02T19:38:21.653Z,70.39
2023-11-02T19:40:50.015Z,70.21
2023-11-02T19:43:25.272Z,70.32
2023-11-02T19:45:53.803Z,70.39
2023-11-02T19:48:22.852Z,70.42
2023-11-02T19:50:53.042Z,70.25
2023-11-02T19:53:21.678Z,69.81
2023-11-02T19:55:49.939Z,70.09
2023-11-02T19:58:19.873Z,70.37
2023-11-02T20:00:49.432Z,69.61
2023-11-02T20:03:17.747Z,69.67
2023-11-02T20:05:46.491Z,69.57
2023-11-02T20:08:14.695Z,68.95
2023-11-02T20:10:42.912Z,69.07
2023-11-02T20:13:11.081Z,68.80
2023-11-02T20:15:40.869Z,67.98
2023-11-02T20:18:09.132Z,68.41
2023-11-02T20:20:38.169Z,68.33
2023-11-02T20:23:07.133Z,68.81
2023-11-02T20:25:36.406Z,68.48
2023-11-02T20:28:05.413Z,68.91
2023-11-02T20:30:34.695Z,68.26
2023-11-02T20:33:04.420Z,68.51
2023-11-02T20:35:32.564Z,69.05
2023-11-02T20:38:00.681Z,68.94
2023-11-02T20:40:28.787Z,69.12
2023-11-02T20:42:56.897Z,69.01
2023-11-02T20:45:25.061Z,69.50
2023-11-02T20:47:53.302Z,69.62
2023-11-02T20:50:22.875Z,69.30
2023-11-02T20:52:51.017Z,69.13
2023-11-02T20:55:19.214Z,69.02
2023-11-02T20:57:47.841Z,69.29
2023-11-02T21:00:21.805Z,69.16
2023-11-02T21:02:51.302Z,68.50
2023-11-02T21:05:20.128Z,68.46
2023-11-02T21:07:50.274Z,68.43
2023-11-02T21:10:18.562Z,68.42
2023-11-02T21:12:46.834Z,67.93
2023-11-02T21:15:14.990Z,68.13
2023-11-02T21:17:43.229Z,68.09
2023-11-02T21:20:12.539Z,68.13
2023-11-02T21:22:40.764Z,68.45
2023-11-02T21:25:11.257Z,68.42
2023-11-02T21:27:40.542Z,69.06
2023-11-02T21:30:10.901Z,68.99
2023-11-02T21:32:39.145Z,69.49
2023-11-02T21:35:08.671Z,69.47
2023-11-02T21:37:36.920Z,69.08
2023-11-02T21:40:06.668Z,69.29
2023-11-02T21:42:36.447Z,68.87
2023-11-02T21:45:05.938Z,68.80
2023-11-02T21:47:34.265Z,68.52
2023-11-02T21:50:02.403Z,68.79
2023-11-02T21:52:30.565Z,68.67
2023-11-02T21:54:58.757Z,68.33
2023-11-02T21:57:26.859Z,68.32
2023-11-02T21:59:56.401Z,68.36
2023-11-02T22:02:24.511Z,68.54
2023-11-02T22:04:52.720Z,68.62
2023-11-02T22:07:20.880Z,68.98
2023-11-02T22:09:51.362Z,69.11
2023-11-02T22:12:19.522Z,68.86
2023-11-02T22:14:47.933Z,68.86
2023-11-02T22:17:17.478Z,69.15
2023-11-02T22:19:46.062Z,68.85
2023-11-02T22:22:15.632Z,68.50
2023-11-02T22:24:43.832Z,68.30
2023-11-02T22:27:12.295Z,68.21
2023-11-02T22:29:42.185Z,68.27
2023-11-02T22:32:10.718Z,68.33
2023-11-02T22:34:40.267Z,68.41
2023-11-02T22:37:08.681Z,68.55
2023-11-02T22:39:37.118Z,68.67
2023-11-02T22:42:06.235Z,68.67
2023-11-02T22:44:34.945Z,68.52
2023-11-02T22:47:03.322Z,68.60
2023-11-02T22:49:31.473Z,68.62
2023-11-02T22:52:01.098Z,68.47
2023-11-02T22:54:29.240Z,68.53
2023-11-02T22:56:57.317Z,68.10
2023-11-02T22:59:25.409Z,68.40
2023-11-02T23:01:55.591Z,68.75
2023-11-02T23:04:24.974Z,68.39
2023-11-02T23:06:53.193Z,68.65
2023-11-02T23:09:22.761Z,68.29
2023-11-02T23:11:51.038Z,68.26
2023-11-02T23:14:19.146Z,68.10
2023-11-02T23:16:47.323Z,67.82
2023-11-02T23:19:15.934Z,67.81
2023-11-02T23:21:44.337Z,67.88
2023-11-02T23:24:12.442Z,67.62
2023-11-02T23:26:42.518Z,67.56
2023-11-02T23:29:10.695Z,67.57
2023-11-02T23:31:39.474Z,67.36
2023-11-02T23:34:08.049Z,67.36
2023-11-02T23:36:36.295Z,67.39
2023-11-02T23:39:04.756Z,67.36
2023-11-02T23:41:37.179Z,67.76
2023-11-02T23:44:07.320Z,67.93
2023-11-02T23:46:35.460Z,67.86
2023-11-02T23:49:03.708Z,68.22
2023-11-02T23:51:31.966Z,68.24
2023-11-02T23:54:00.193Z,68.31
2023-11-02T23:56:35.880Z,68.52
2023-11-02T23:59:04.151Z,68.39
